Time;durP1;ratioP1;P1;durP2;ratioP2;P2;SDS_P1;SDS_P2;PMS_P1;PMS_P2;Temp;Humidity;BMP_temperature;BMP_pressure;BME280_temperature;BME280_humidity;BME280_pressure;Samples;Min_cycle;Max_cycle;Signal;HPM_P1;HPM_P2
2021/12/26 00:00:01;;;;;;;4.95;3.22;;;;;;;;;;5029291;28;20098;-69
2021/12/26 00:02:26;;;;;;;4.47;1.88;;;;;;;;;;5029721;28;20502;-70
2021/12/26 00:04:52;;;;;;;10.23;3.30;;;;;;;;;;5029793;28;20543;-70
2021/12/26 00:07:17;;;;;;;9.23;4.13;;;;;;;;;;5028890;28;20025;-69
2021/12/26 00:09:43;;;;;;;3.42;2.10;;;;;;;;;;5029532;28;20032;-69
2021/12/26 00:12:08;;;;;;;5.47;2.85;;;;;;;;;;5048279;22;20515;-66
2021/12/26 00:14:33;;;;;;;7.72;3.17;;;;;;;;;;5006804;28;20057;-66
2021/12/26 00:16:59;;;;;;;1.45;1.30;;;;;;;;;;5009079;28;20131;-65
2021/12/26 00:19:24;;;;;;;13.57;3.25;;;;;;;;;;5013358;28;20042;-66
2021/12/26 00:21:49;;;;;;;6.80;3.60;;;;;;;;;;5009669;28;20120;-65
2021/12/26 00:24:14;;;;;;;5.90;3.78;;;;;;;;;;5003401;28;20493;-66
2021/12/26 00:26:40;;;;;;;7.38;2.97;;;;;;;;;;4999170;28;20022;-65
2021/12/26 00:29:05;;;;;;;6.55;3.45;;;;;;;;;;5004465;28;20022;-66
2021/12/26 00:31:31;;;;;;;4.53;2.30;;;;;;;;;;4999032;28;20117;-66
2021/12/26 00:33:56;;;;;;;6.18;3.45;;;;;;;;;;5008766;28;20382;-66
2021/12/26 00:36:21;;;;;;;6.85;3.63;;;;;;;;;;5009217;28;20040;-66
2021/12/26 00:38:47;;;;;;;8.30;3.13;;;;;;;;;;5008963;28;21589;-66
2021/12/26 00:41:12;;;;;;;7.63;3.42;;;;;;;;;;5008894;28;20022;-66
2021/12/26 00:43:37;;;;;;;7.25;2.95;;;;;;;;;;5009104;28;20363;-66
2021/12/26 00:46:03;;;;;;;8.30;3.40;;;;;;;;;;4995655;28;20025;-66
2021/12/26 00:48:28;;;;;;;2.45;1.25;;;;;;;;;;5008087;28;20038;-66
2021/12/26 00:50:53;;;;;;;10.20;4.07;;;;;;;;;;5008760;28;20106;-65
2021/12/26 00:53:19;;;;;;;5.68;3.03;;;;;;;;;;5008730;28;20025;-66
2021/12/26 00:55:44;;;;;;;3.88;2.47;;;;;;;;;;5008825;28;20060;-66
2021/12/26 00:58:09;;;;;;;7.30;3.47;;;;;;;;;;5008601;28;20025;-66
2021/12/26 01:00:37;;;;;;;4.18;2.58;;;;;;;;;;5008519;28;20026;-66
2021/12/26 01:03:03;;;;;;;6.93;2.47;;;;;;;;;;5008068;28;20178;-67
2021/12/26 01:05:29;;;;;;;4.90;2.45;;;;;;;;;;5008544;28;20474;-66
2021/12/26 01:08:02;;;;;;;8.93;4.35;;;;;;;;;;5008501;28;20024;-66
2021/12/26 01:10:33;;;;;;;4.10;2.17;;;;;;;;;;4996855;28;20079;-66
2021/12/26 01:12:58;;;;;;;3.75;1.63;;;;;;;;;;5008517;28;20489;-66
2021/12/26 01:15:24;;;;;;;5.45;2.60;;;;;;;;;;5004768;28;20034;-66
2021/12/26 01:17:55;;;;;;;5.32;2.40;;;;;;;;;;5005256;28;20053;-66
2021/12/26 01:20:37;;;;;;;4.18;2.15;;;;;;;;;;5008071;28;20490;-66
2021/12/26 01:23:03;;;;;;;7.22;3.65;;;;;;;;;;5003239;28;20383;-66
2021/12/26 01:25:28;;;;;;;6.63;3.72;;;;;;;;;;5002130;28;20022;-64
2021/12/26 01:27:53;;;;;;;5.25;3.22;;;;;;;;;;5004551;28;20068;-66
2021/12/26 01:30:18;;;;;;;7.10;3.65;;;;;;;;;;5007599;28;20394;-66
2021/12/26 01:32:43;;;;;;;3.35;1.92;;;;;;;;;;5007901;28;20033;-67
2021/12/26 01:35:09;;;;;;;5.45;2.47;;;;;;;;;;5008742;28;20018;-66
2021/12/26 01:37:34;;;;;;;5.80;2.65;;;;;;;;;;5000455;28;20106;-67
2021/12/26 01:39:59;;;;;;;6.47;2.13;;;;;;;;;;5003360;28;20209;-64
2021/12/26 01:42:26;;;;;;;6.40;3.20;;;;;;;;;;5002119;28;20014;-66
2021/12/26 01:44:51;;;;;;;9.45;3.20;;;;;;;;;;5006065;28;20105;-66
2021/12/26 01:47:16;;;;;;;6.47;2.75;;;;;;;;;;5008134;28;20104;-66
2021/12/26 01:49:41;;;;;;;3.40;1.50;;;;;;;;;;5008179;28;20111;-66
2021/12/26 01:52:07;;;;;;;5.80;2.85;;;;;;;;;;5007419;28;20037;-66
2021/12/26 01:54:38;;;;;;;4.68;2.15;;;;;;;;;;5008764;28;20022;-65
2021/12/26 01:57:05;;;;;;;3.08;1.73;;;;;;;;;;4990486;28;20035;-66
2021/12/26 01:59:30;;;;;;;6.57;2.80;;;;;;;;;;5005933;28;20068;-66
2021/12/26 02:01:56;;;;;;;5.80;3.17;;;;;;;;;;5006886;28;20037;-66
2021/12/26 02:04:23;;;;;;;4.90;2.92;;;;;;;;;;5008584;28;20137;-66
2021/12/26 02:06:48;;;;;;;7.07;3.42;;;;;;;;;;5016064;28;20157;-66
2021/12/26 02:09:14;;;;;;;5.72;3.65;;;;;;;;;;5010008;28;20033;-66
2021/12/26 02:11:39;;;;;;;8.20;4.13;;;;;;;;;;5002429;28;20417;-66
2021/12/26 02:14:05;;;;;;;4.07;2.28;;;;;;;;;;5007536;28;20061;-66
2021/12/26 02:16:30;;;;;;;7.20;3.83;;;;;;;;;;5003501;28;20452;-65
2021/12/26 02:18:55;;;;;;;6.97;3.25;;;;;;;;;;5007898;28;20240;-67
2021/12/26 02:24:13;;;;;;;3.72;1.92;;;;;;;;;;5002038;28;20084;-67
2021/12/26 02:29:23;;;;;;;3.20;2.45;;;;;;;;;;5008925;28;20104;-67
2021/12/26 02:31:48;;;;;;;6.03;3.42;;;;;;;;;;5011899;28;20037;-67
2021/12/26 02:34:14;;;;;;;4.57;2.33;;;;;;;;;;5010808;28;20018;-67
2021/12/26 02:36:39;;;;;;;6.05;3.20;;;;;;;;;;5011903;28;20022;-67
2021/12/26 02:39:04;;;;;;;5.57;2.63;;;;;;;;;;5015380;28;20084;-67
2021/12/26 02:41:29;;;;;;;6.22;2.95;;;;;;;;;;5011988;28;20029;-67
2021/12/26 02:43:55;;;;;;;8.18;4.07;;;;;;;;;;5009993;28;20410;-67
2021/12/26 02:46:20;;;;;;;7.18;3.80;;;;;;;;;;5011405;28;20014;-67
2021/12/26 02:48:45;;;;;;;4.55;2.70;;;;;;;;;;5009758;28;20424;-67
2021/12/26 02:51:10;;;;;;;8.10;4.18;;;;;;;;;;5011251;28;20032;-67
2021/12/26 02:53:36;;;;;;;8.85;4.18;;;;;;;;;;5011081;28;20030;-67
2021/12/26 02:56:02;;;;;;;8.05;4.15;;;;;;;;;;5010690;28;20029;-66
2021/12/26 02:58:27;;;;;;;7.60;4.07;;;;;;;;;;5010856;28;20450;-67
2021/12/26 03:00:52;;;;;;;5.22;2.97;;;;;;;;;;5010071;28;20052;-67
2021/12/26 03:03:18;;;;;;;9.65;3.42;;;;;;;;;;5010153;28;20071;-67
2021/12/26 03:05:44;;;;;;;5.07;2.50;;;;;;;;;;5010549;28;20021;-67
2021/12/26 03:08:11;;;;;;;6.15;3.42;;;;;;;;;;5009776;28;20042;-67
2021/12/26 03:10:36;;;;;;;4.43;2.38;;;;;;;;;;5008637;28;20046;-67
2021/12/26 03:13:03;;;;;;;9.77;5.18;;;;;;;;;;5009920;28;20100;-67
2021/12/26 03:15:30;;;;;;;12.45;6.35;;;;;;;;;;5010452;28;20038;-67
2021/12/26 03:17:55;;;;;;;15.23;6.68;;;;;;;;;;5010038;28;20457;-67
2021/12/26 03:20:22;;;;;;;5.40;2.63;;;;;;;;;;5010595;28;20052;-67
2021/12/26 03:22:47;;;;;;;6.15;2.50;;;;;;;;;;5009402;28;20097;-65
2021/12/26 03:25:17;;;;;;;9.20;4.75;;;;;;;;;;5010426;28;20447;-68
2021/12/26 03:27:42;;;;;;;5.95;2.70;;;;;;;;;;5004331;28;20026;-66
2021/12/26 03:30:09;;;;;;;8.70;3.05;;;;;;;;;;5010390;28;20026;-67
2021/12/26 03:32:34;;;;;;;11.80;5.22;;;;;;;;;;5009604;28;20033;-66
2021/12/26 03:34:59;;;;;;;14.25;6.22;;;;;;;;;;5010706;28;20092;-67
2021/12/26 03:37:25;;;;;;;10.18;4.18;;;;;;;;;;5004573;28;20125;-67
2021/12/26 03:39:50;;;;;;;6.90;2.70;;;;;;;;;;5010101;28;20030;-68
2021/12/26 03:42:15;;;;;;;6.25;4.05;;;;;;;;;;4990844;28;20698;-67
2021/12/26 03:44:41;;;;;;;9.60;3.97;;;;;;;;;;5009175;28;20104;-66
2021/12/26 03:47:06;;;;;;;15.20;6.97;;;;;;;;;;5009634;28;20022;-67
2021/12/26 03:49:31;;;;;;;11.48;5.43;;;;;;;;;;5010236;28;20053;-67
2021/12/26 03:51:56;;;;;;;7.25;3.75;;;;;;;;;;5008800;28;20042;-67
2021/12/26 03:54:21;;;;;;;12.15;5.88;;;;;;;;;;5009685;28;20129;-67
2021/12/26 03:56:47;;;;;;;11.23;5.78;;;;;;;;;;5008903;28;20038;-66
2021/12/26 03:59:12;;;;;;;11.98;5.50;;;;;;;;;;5009087;28;20057;-66
2021/12/26 04:01:37;;;;;;;9.65;4.60;;;;;;;;;;5009270;28;20018;-66
2021/12/26 04:04:03;;;;;;;5.72;3.40;;;;;;;;;;5009709;28;20038;-66
2021/12/26 04:06:29;;;;;;;12.10;3.53;;;;;;;;;;5009502;28;20022;-67
2021/12/26 04:08:54;;;;;;;11.27;4.75;;;;;;;;;;5008920;28;20030;-67
2021/12/26 04:11:19;;;;;;;10.88;5.20;;;;;;;;;;5006046;28;20030;-66
2021/12/26 04:13:44;;;;;;;10.68;5.47;;;;;;;;;;5009071;28;20338;-67
2021/12/26 04:16:10;;;;;;;3.53;2.17;;;;;;;;;;5008344;28;20018;-67
2021/12/26 04:18:35;;;;;;;7.93;3.85;;;;;;;;;;5008090;28;20038;-68
2021/12/26 04:21:00;;;;;;;14.25;6.28;;;;;;;;;;5008904;28;20449;-67
2021/12/26 04:23:25;;;;;;;6.07;2.55;;;;;;;;;;4996212;28;20013;-67
2021/12/26 04:25:51;;;;;;;7.93;3.33;;;;;;;;;;5009812;28;20418;-67
2021/12/26 04:28:19;;;;;;;11.90;4.80;;;;;;;;;;4995619;28;20097;-67
2021/12/26 04:30:45;;;;;;;9.23;4.53;;;;;;;;;;5009005;28;20495;-65
2021/12/26 04:33:11;;;;;;;12.65;6.10;;;;;;;;;;5004436;28;20021;-67
2021/12/26 04:35:36;;;;;;;12.00;6.22;;;;;;;;;;5008775;28;20478;-67
2021/12/26 04:38:01;;;;;;;9.30;5.32;;;;;;;;;;5008842;28;20443;-67
2021/12/26 04:40:27;;;;;;;9.27;5.20;;;;;;;;;;5006542;28;20046;-66
2021/12/26 04:42:52;;;;;;;14.57;6.45;;;;;;;;;;4988629;28;20475;-67
2021/12/26 04:45:18;;;;;;;15.73;6.30;;;;;;;;;;5002826;28;20253;-67
2021/12/26 04:47:44;;;;;;;14.82;6.00;;;;;;;;;;5006075;28;20565;-67
2021/12/26 04:50:12;;;;;;;10.80;4.00;;;;;;;;;;5007773;28;20486;-67
2021/12/26 04:52:39;;;;;;;4.53;3.25;;;;;;;;;;5009463;28;20497;-66
2021/12/26 04:55:05;;;;;;;9.95;5.18;;;;;;;;;;5007999;28;20453;-66
2021/12/26 04:57:31;;;;;;;7.15;4.13;;;;;;;;;;5008974;28;20026;-67
2021/12/26 04:59:56;;;;;;;13.27;6.28;;;;;;;;;;5006175;28;20033;-68
2021/12/26 05:02:22;;;;;;;8.85;4.05;;;;;;;;;;5000347;28;20073;-66
2021/12/26 05:04:47;;;;;;;4.80;3.03;;;;;;;;;;5006369;28;20393;-67
2021/12/26 05:07:12;;;;;;;8.07;3.03;;;;;;;;;;4992818;28;20026;-67
2021/12/26 05:09:37;;;;;;;9.63;3.38;;;;;;;;;;5009077;28;20495;-67
2021/12/26 05:12:02;;;;;;;11.65;6.03;;;;;;;;;;5003743;28;20037;-67
2021/12/26 05:14:28;;;;;;;7.40;3.33;;;;;;;;;;5006046;28;20022;-66
2021/12/26 05:16:53;;;;;;;12.45;4.65;;;;;;;;;;5008163;28;20506;-66
2021/12/26 05:19:18;;;;;;;6.03;3.50;;;;;;;;;;5008306;28;20049;-66
2021/12/26 05:21:43;;;;;;;6.70;3.50;;;;;;;;;;5008229;28;20032;-67
2021/12/26 05:24:08;;;;;;;12.15;5.85;;;;;;;;;;5008161;28;20186;-68
2021/12/26 05:26:34;;;;;;;7.93;4.38;;;;;;;;;;5008384;28;20041;-67
2021/12/26 05:28:59;;;;;;;7.75;4.00;;;;;;;;;;4990644;28;20023;-67
2021/12/26 05:31:24;;;;;;;11.32;5.03;;;;;;;;;;5007571;28;20026;-67
2021/12/26 05:33:49;;;;;;;10.07;3.92;;;;;;;;;;5006681;28;20025;-67
2021/12/26 05:36:14;;;;;;;12.20;5.78;;;;;;;;;;5007258;28;20378;-67
2021/12/26 05:38:40;;;;;;;11.30;4.68;;;;;;;;;;5019206;28;20044;-67
2021/12/26 05:41:05;;;;;;;10.35;4.63;;;;;;;;;;5007664;28;20021;-67
2021/12/26 05:43:31;;;;;;;17.85;6.50;;;;;;;;;;5005600;28;20022;-66
2021/12/26 05:45:56;;;;;;;9.90;4.95;;;;;;;;;;5007344;28;20092;-67
2021/12/26 05:48:21;;;;;;;5.72;2.75;;;;;;;;;;5005340;28;20023;-67
2021/12/26 05:50:46;;;;;;;13.50;4.75;;;;;;;;;;4996980;28;20061;-67
2021/12/26 05:53:11;;;;;;;13.93;5.90;;;;;;;;;;5006836;28;20361;-65
2021/12/26 05:55:36;;;;;;;11.10;5.30;;;;;;;;;;5009185;28;20034;-67
2021/12/26 05:58:02;;;;;;;11.05;4.13;;;;;;;;;;5000885;28;20026;-66
2021/12/26 06:00:27;;;;;;;7.13;3.58;;;;;;;;;;5011822;28;20488;-67
2021/12/26 06:02:54;;;;;;;9.38;4.85;;;;;;;;;;5011542;28;20075;-67
2021/12/26 06:05:19;;;;;;;10.43;5.28;;;;;;;;;;5012542;28;20395;-65
2021/12/26 06:07:45;;;;;;;11.00;4.65;;;;;;;;;;5010303;28;20067;-67
2021/12/26 06:10:10;;;;;;;7.60;2.72;;;;;;;;;;5012183;28;20470;-66
2021/12/26 06:12:35;;;;;;;10.63;6.15;;;;;;;;;;5009992;28;20112;-67
2021/12/26 06:15:00;;;;;;;14.20;7.72;;;;;;;;;;5006076;28;20034;-67
2021/12/26 06:17:26;;;;;;;9.15;4.15;;;;;;;;;;5008383;28;20466;-67
2021/12/26 06:19:51;;;;;;;16.27;7.72;;;;;;;;;;5031417;22;20048;-69
2021/12/26 06:22:16;;;;;;;17.52;8.68;;;;;;;;;;5032016;28;20053;-69
2021/12/26 06:24:42;;;;;;;12.00;6.45;;;;;;;;;;5033113;28;20018;-69
2021/12/26 06:27:07;;;;;;;7.28;4.18;;;;;;;;;;5031593;28;20502;-69
2021/12/26 06:29:32;;;;;;;14.57;7.85;;;;;;;;;;5013151;28;20109;-69
2021/12/26 06:31:57;;;;;;;15.98;8.07;;;;;;;;;;5029692;28;20037;-69
2021/12/26 06:34:22;;;;;;;12.68;5.55;;;;;;;;;;5031918;28;20026;-68
2021/12/26 06:36:48;;;;;;;11.75;5.43;;;;;;;;;;5032747;28;20432;-69
2021/12/26 06:39:13;;;;;;;11.82;6.15;;;;;;;;;;5032087;28;20473;-69
2021/12/26 06:41:41;;;;;;;14.95;6.82;;;;;;;;;;5031726;28;20152;-69
2021/12/26 06:44:09;;;;;;;7.72;3.80;;;;;;;;;;4998341;28;20022;-69
2021/12/26 06:46:35;;;;;;;14.57;6.18;;;;;;;;;;5018708;28;20025;-69
2021/12/26 06:49:00;;;;;;;17.63;7.90;;;;;;;;;;5032366;28;20036;-68
2021/12/26 06:51:25;;;;;;;9.63;4.03;;;;;;;;;;5032159;28;20386;-69
2021/12/26 06:53:51;;;;;;;10.93;5.22;;;;;;;;;;5031425;28;20132;-69
2021/12/26 06:56:16;;;;;;;6.72;3.80;;;;;;;;;;5032203;28;20481;-69
2021/12/26 06:58:41;;;;;;;7.15;3.92;;;;;;;;;;5017616;28;20120;-69
2021/12/26 07:01:06;;;;;;;16.50;8.45;;;;;;;;;;5032396;28;20013;-69
2021/12/26 07:03:31;;;;;;;9.95;4.05;;;;;;;;;;5030361;28;20025;-70
2021/12/26 07:05:57;;;;;;;9.95;5.20;;;;;;;;;;5009937;28;20057;-69
2021/12/26 07:08:22;;;;;;;5.30;3.15;;;;;;;;;;5032004;28;20113;-69
2021/12/26 07:10:47;;;;;;;9.82;4.65;;;;;;;;;;5029538;28;20547;-69
2021/12/26 07:13:12;;;;;;;12.38;4.38;;;;;;;;;;5032280;28;20100;-69
2021/12/26 07:15:38;;;;;;;16.25;7.45;;;;;;;;;;5028067;28;20037;-69
2021/12/26 07:18:03;;;;;;;10.57;5.28;;;;;;;;;;5021656;28;20020;-69
2021/12/26 07:20:28;;;;;;;16.27;8.40;;;;;;;;;;5019196;28;20136;-68
2021/12/26 07:22:54;;;;;;;7.35;4.03;;;;;;;;;;5026687;28;20021;-69
2021/12/26 07:25:19;;;;;;;9.15;4.93;;;;;;;;;;5030087;28;20033;-69
2021/12/26 07:27:44;;;;;;;10.35;5.22;;;;;;;;;;5030685;28;20450;-69
2021/12/26 07:30:10;;;;;;;11.48;5.18;;;;;;;;;;5029602;28;20029;-69
2021/12/26 07:32:35;;;;;;;6.57;3.60;;;;;;;;;;5012732;28;20509;-69
2021/12/26 07:35:00;;;;;;;8.07;4.10;;;;;;;;;;5022120;28;20568;-69
2021/12/26 07:37:26;;;;;;;9.20;3.35;;;;;;;;;;5013543;28;20030;-69
2021/12/26 07:39:52;;;;;;;15.52;7.80;;;;;;;;;;5028689;28;20028;-69
2021/12/26 07:42:17;;;;;;;7.18;3.97;;;;;;;;;;5028519;28;20025;-69
2021/12/26 07:44:42;;;;;;;17.95;7.28;;;;;;;;;;5029674;28;20025;-69
2021/12/26 07:47:08;;;;;;;19.25;8.45;;;;;;;;;;5019414;28;20022;-69
2021/12/26 07:49:33;;;;;;;12.23;5.93;;;;;;;;;;5025181;28;20414;-71
2021/12/26 07:51:59;;;;;;;18.10;9.55;;;;;;;;;;5021116;28;20409;-69
2021/12/26 07:54:25;;;;;;;15.63;7.13;;;;;;;;;;5024146;28;20029;-69
2021/12/26 07:56:51;;;;;;;8.65;5.18;;;;;;;;;;5028999;28;20486;-69
2021/12/26 07:59:16;;;;;;;10.95;5.13;;;;;;;;;;5023433;28;20037;-68
2021/12/26 08:01:41;;;;;;;13.32;6.70;;;;;;;;;;5026733;28;20025;-69
2021/12/26 08:04:10;;;;;;;8.50;3.70;;;;;;;;;;5028983;28;20026;-69
2021/12/26 08:06:36;;;;;;;14.30;6.82;;;;;;;;;;5026938;28;20096;-68
2021/12/26 08:09:01;;;;;;;13.40;6.00;;;;;;;;;;5028929;28;20096;-69
2021/12/26 08:11:26;;;;;;;8.75;4.47;;;;;;;;;;5028908;28;20064;-68
2021/12/26 08:13:51;;;;;;;9.18;3.95;;;;;;;;;;5028678;28;20175;-69
2021/12/26 08:16:17;;;;;;;7.68;4.18;;;;;;;;;;5023414;28;20041;-69
2021/12/26 08:18:42;;;;;;;10.90;4.38;;;;;;;;;;5022234;28;20033;-69
2021/12/26 08:21:07;;;;;;;10.45;3.88;;;;;;;;;;5022563;28;20091;-69
2021/12/26 08:23:33;;;;;;;14.38;5.63;;;;;;;;;;5020265;28;20445;-68
2021/12/26 08:25:58;;;;;;;17.70;9.20;;;;;;;;;;5026093;28;20033;-69
2021/12/26 08:28:23;;;;;;;12.48;6.43;;;;;;;;;;5023244;28;20113;-69
2021/12/26 08:30:49;;;;;;;8.77;4.30;;;;;;;;;;5028702;28;20501;-69
2021/12/26 08:33:14;;;;;;;15.05;6.13;;;;;;;;;;5028693;28;20026;-69
2021/12/26 08:35:43;;;;;;;22.27;9.32;;;;;;;;;;5027555;28;20125;-69
2021/12/26 08:38:09;;;;;;;13.65;6.88;;;;;;;;;;5028357;28;20037;-69
2021/12/26 08:40:34;;;;;;;14.73;6.78;;;;;;;;;;5027816;28;20079;-69
2021/12/26 08:43:00;;;;;;;15.63;5.18;;;;;;;;;;5028700;28;20159;-69
2021/12/26 08:45:28;;;;;;;19.13;9.38;;;;;;;;;;5020685;28;20078;-69
2021/12/26 08:47:55;;;;;;;20.02;10.35;;;;;;;;;;5029348;28;20106;-69
2021/12/26 08:50:21;;;;;;;11.77;4.78;;;;;;;;;;5024102;28;20026;-69
2021/12/26 08:52:46;;;;;;;13.55;6.88;;;;;;;;;;5028939;28;20017;-68
2021/12/26 08:55:11;;;;;;;14.45;6.50;;;;;;;;;;5028212;28;20503;-69
2021/12/26 08:57:36;;;;;;;15.30;7.32;;;;;;;;;;5029035;28;20041;-69
2021/12/26 09:00:04;;;;;;;12.38;4.50;;;;;;;;;;5019062;28;20057;-70
2021/12/26 09:02:30;;;;;;;20.48;8.82;;;;;;;;;;5026344;28;20688;-70
2021/12/26 09:04:55;;;;;;;19.83;9.82;;;;;;;;;;5024626;28;20033;-70
2021/12/26 09:07:20;;;;;;;15.30;7.95;;;;;;;;;;5026949;28;20025;-68
2021/12/26 09:09:48;;;;;;;12.57;5.30;;;;;;;;;;5027713;28;20053;-70
2021/12/26 09:12:13;;;;;;;11.40;6.45;;;;;;;;;;5028201;28;20425;-70
2021/12/26 09:14:38;;;;;;;17.25;7.78;;;;;;;;;;5028153;28;20026;-69
2021/12/26 09:17:04;;;;;;;15.65;7.22;;;;;;;;;;5028412;28;20103;-70
2021/12/26 09:19:30;;;;;;;12.85;6.70;;;;;;;;;;5027102;28;20028;-70
2021/12/26 09:21:56;;;;;;;16.20;7.22;;;;;;;;;;5027683;28;20058;-70
2021/12/26 09:24:21;;;;;;;16.60;8.13;;;;;;;;;;5027743;28;20048;-70
2021/12/26 09:26:46;;;;;;;20.15;9.00;;;;;;;;;;5028608;28;20097;-70
2021/12/26 09:29:11;;;;;;;11.40;5.75;;;;;;;;;;5017560;28;20084;-70
2021/12/26 09:31:36;;;;;;;7.18;3.15;;;;;;;;;;5023214;28;20018;-70
2021/12/26 09:34:02;;;;;;;14.10;7.05;;;;;;;;;;5027126;28;20049;-70
2021/12/26 09:36:28;;;;;;;16.98;7.93;;;;;;;;;;5027976;28;20041;-70
2021/12/26 09:38:53;;;;;;;12.38;4.15;;;;;;;;;;5027782;28;20021;-70
2021/12/26 09:41:18;;;;;;;14.25;6.95;;;;;;;;;;5028035;28;20462;-70
2021/12/26 09:43:43;;;;;;;15.82;7.30;;;;;;;;;;5024041;28;20014;-70
2021/12/26 09:46:08;;;;;;;20.48;9.18;;;;;;;;;;5027414;28;20096;-70
2021/12/26 09:48:34;;;;;;;12.20;6.25;;;;;;;;;;5026669;28;20432;-69
2021/12/26 09:50:59;;;;;;;15.93;7.10;;;;;;;;;;5026809;28;20017;-70
2021/12/26 09:53:24;;;;;;;20.83;10.40;;;;;;;;;;5025733;28;20049;-70
2021/12/26 09:55:50;;;;;;;17.13;8.27;;;;;;;;;;5026231;28;20029;-70
2021/12/26 09:58:15;;;;;;;25.50;10.82;;;;;;;;;;5026206;28;20029;-70
2021/12/26 10:00:42;;;;;;;22.58;10.30;;;;;;;;;;5022882;28;20385;-70
2021/12/26 10:03:08;;;;;;;18.02;8.95;;;;;;;;;;5022801;28;20021;-70
2021/12/26 10:05:53;;;;;;;12.77;6.17;;;;;;;;;;5024900;28;20432;-70
2021/12/26 10:08:18;;;;;;;11.90;5.35;;;;;;;;;;5022832;28;20391;-70
2021/12/26 10:10:43;;;;;;;13.63;6.15;;;;;;;;;;5020649;28;20520;-71
2021/12/26 10:13:08;;;;;;;14.30;7.57;;;;;;;;;;5018785;28;20025;-71
2021/12/26 10:15:47;;;;;;;11.10;6.35;;;;;;;;;;5012208;28;20120;-71
2021/12/26 10:18:28;;;;;;;11.02;4.47;;;;;;;;;;5016148;28;20041;-71
2021/12/26 10:20:54;;;;;;;17.45;6.95;;;;;;;;;;5012187;28;20164;-70
2021/12/26 10:23:26;;;;;;;17.60;7.78;;;;;;;;;;5010742;28;20029;-69
2021/12/26 10:25:51;;;;;;;21.33;9.18;;;;;;;;;;5008964;28;20117;-70
2021/12/26 10:28:16;;;;;;;15.18;7.18;;;;;;;;;;5014610;28;20703;-71
2021/12/26 10:30:42;;;;;;;22.50;8.88;;;;;;;;;;5018804;28;20791;-69
2021/12/26 10:33:08;;;;;;;20.00;7.78;;;;;;;;;;5021928;28;20117;-70
2021/12/26 10:35:33;;;;;;;15.05;7.03;;;;;;;;;;5016786;28;20030;-70
2021/12/26 10:37:58;;;;;;;16.08;7.63;;;;;;;;;;5016259;28;20104;-70
2021/12/26 10:40:25;;;;;;;22.65;11.00;;;;;;;;;;5023426;28;20108;-71
2021/12/26 10:42:52;;;;;;;18.73;7.28;;;;;;;;;;5030669;28;20086;-69
2021/12/26 10:45:20;;;;;;;20.95;8.63;;;;;;;;;;5023559;28;20017;-69
2021/12/26 10:47:49;;;;;;;19.33;9.00;;;;;;;;;;5028679;28;20032;-70
2021/12/26 10:50:15;;;;;;;15.10;7.40;;;;;;;;;;5023766;28;20021;-69
2021/12/26 10:52:49;;;;;;;13.95;7.95;;;;;;;;;;5027827;28;20033;-70
2021/12/26 10:55:16;;;;;;;21.25;9.75;;;;;;;;;;5023171;28;20025;-68
2021/12/26 10:57:45;;;;;;;15.85;5.65;;;;;;;;;;5027054;28;20026;-69
2021/12/26 11:00:24;;;;;;;15.90;6.78;;;;;;;;;;5024915;28;20098;-69
2021/12/26 11:02:51;;;;;;;16.50;7.55;;;;;;;;;;5014534;28;20025;-68
2021/12/26 11:05:18;;;;;;;22.88;8.98;;;;;;;;;;5025551;28;20095;-68
2021/12/26 11:07:45;;;;;;;17.00;6.72;;;;;;;;;;5010440;28;20389;-68
2021/12/26 11:10:22;;;;;;;14.15;6.47;;;;;;;;;;5028854;28;20067;-69
2021/12/26 11:12:48;;;;;;;9.85;5.05;;;;;;;;;;5024395;28;20022;-70
2021/12/26 11:15:15;;;;;;;17.98;8.35;;;;;;;;;;5028242;28;20052;-69
2021/12/26 11:17:44;;;;;;;10.43;3.38;;;;;;;;;;5030862;28;20536;-69
2021/12/26 11:20:16;;;;;;;13.43;6.75;;;;;;;;;;5019593;28;20030;-69
2021/12/26 11:22:41;;;;;;;11.27;4.93;;;;;;;;;;5030940;28;20098;-68
2021/12/26 11:25:07;;;;;;;17.35;5.63;;;;;;;;;;5019165;28;20486;-70
2021/12/26 11:27:32;;;;;;;15.52;7.47;;;;;;;;;;5021620;28;20063;-69
2021/12/26 11:29:57;;;;;;;23.55;10.20;;;;;;;;;;5028109;28;20061;-69
2021/12/26 11:32:24;;;;;;;8.63;4.78;;;;;;;;;;5024877;28;20027;-69
2021/12/26 11:34:49;;;;;;;15.88;5.93;;;;;;;;;;5028144;28;20109;-69
2021/12/26 11:37:15;;;;;;;19.83;11.15;;;;;;;;;;5021865;28;20104;-69
2021/12/26 11:39:42;;;;;;;14.38;7.63;;;;;;;;;;5022467;28;20133;-69
2021/12/26 11:42:36;;;;;;;22.17;9.60;;;;;;;;;;5028560;28;20108;-70
2021/12/26 11:45:12;;;;;;;17.33;8.57;;;;;;;;;;4992344;28;20042;-70
2021/12/26 11:48:00;;;;;;;17.13;8.18;;;;;;;;;;5025716;28;20021;-70
2021/12/26 11:50:25;;;;;;;15.23;6.22;;;;;;;;;;5018252;28;20036;-70
2021/12/26 11:53:03;;;;;;;17.30;8.57;;;;;;;;;;5024851;28;20018;-69
2021/12/26 11:55:46;;;;;;;17.08;7.78;;;;;;;;;;5024855;28;20025;-69
2021/12/26 11:58:17;;;;;;;10.90;6.30;;;;;;;;;;5024272;28;20033;-69
2021/12/26 12:00:47;;;;;;;18.50;7.28;;;;;;;;;;5026965;28;20045;-69
2021/12/26 12:03:18;;;;;;;12.80;6.45;;;;;;;;;;5026949;28;20029;-69
2021/12/26 12:05:43;;;;;;;;;;;;;;;;;;5029120;28;20026;-70
2021/12/26 12:08:08;;;;;;;8.75;4.57;;;;;;;;;;5027258;28;19924;-70
2021/12/26 12:10:35;;;;;;;14.75;7.82;;;;;;;;;;5010392;28;20022;-69
2021/12/26 12:13:01;;;;;;;19.33;9.18;;;;;;;;;;5029445;28;20022;-70
2021/12/26 12:15:45;;;;;;;10.27;4.47;;;;;;;;;;5029560;28;20048;-70
2021/12/26 12:18:30;;;;;;;13.35;6.18;;;;;;;;;;5028285;28;20033;-70
2021/12/26 12:21:05;;;;;;;15.50;7.35;;;;;;;;;;5018541;22;20179;-67
2021/12/26 12:23:30;;;;;;;15.13;7.40;;;;;;;;;;5000933;28;20029;-69
2021/12/26 12:25:55;;;;;;;17.25;5.90;;;;;;;;;;5007609;28;20033;-67
2021/12/26 12:28:22;;;;;;;13.13;5.97;;;;;;;;;;5009632;28;20026;-69
2021/12/26 12:30:52;;;;;;;14.10;5.68;;;;;;;;;;5008942;28;20101;-69
2021/12/26 12:33:17;;;;;;;12.30;5.28;;;;;;;;;;5010168;28;20026;-67
2021/12/26 12:35:55;;;;;;;18.15;8.32;;;;;;;;;;5009427;28;20033;-68
2021/12/26 12:38:25;;;;;;;11.60;6.22;;;;;;;;;;5008402;28;20038;-68
2021/12/26 12:40:51;;;;;;;17.55;8.30;;;;;;;;;;4999036;28;20033;-68
2021/12/26 12:43:18;;;;;;;23.35;10.18;;;;;;;;;;5009096;28;20030;-65
2021/12/26 12:45:57;;;;;;;21.33;9.55;;;;;;;;;;5007151;28;20014;-65
2021/12/26 12:48:29;;;;;;;18.65;7.65;;;;;;;;;;5007984;28;20021;-66
2021/12/26 12:50:59;;;;;;;14.80;7.55;;;;;;;;;;5003067;28;20423;-66
2021/12/26 12:53:40;;;;;;;17.85;6.68;;;;;;;;;;5008327;28;20026;-65
2021/12/26 12:56:06;;;;;;;11.50;6.13;;;;;;;;;;5003537;28;20065;-66
2021/12/26 12:58:32;;;;;;;17.02;6.85;;;;;;;;;;5000840;28;20053;-65
2021/12/26 13:00:58;;;;;;;16.38;6.72;;;;;;;;;;4999861;28;20018;-65
2021/12/26 13:03:23;;;;;;;9.13;4.70;;;;;;;;;;5002000;28;20026;-65
2021/12/26 13:05:49;;;;;;;7.43;3.50;;;;;;;;;;5007844;28;20026;-66
2021/12/26 13:08:16;;;;;;;17.20;8.55;;;;;;;;;;5002422;28;20018;-66
2021/12/26 13:10:42;;;;;;;10.10;5.65;;;;;;;;;;5007919;28;20053;-65
2021/12/26 13:13:08;;;;;;;13.63;6.28;;;;;;;;;;5006698;28;20568;-68
2021/12/26 13:15:36;;;;;;;11.70;5.55;;;;;;;;;;5008291;28;20014;-67
2021/12/26 13:18:06;;;;;;;15.10;6.70;;;;;;;;;;4994065;28;20025;-66
2021/12/26 13:20:32;;;;;;;19.75;7.88;;;;;;;;;;5004200;28;20026;-67
2021/12/26 13:22:58;;;;;;;12.18;4.47;;;;;;;;;;4988285;28;20173;-66
2021/12/26 13:25:23;;;;;;;22.15;8.05;;;;;;;;;;4999163;28;20017;-66
2021/12/26 13:27:49;;;;;;;13.43;5.88;;;;;;;;;;4997752;28;20124;-65
2021/12/26 13:30:14;;;;;;;10.80;4.95;;;;;;;;;;5001675;28;20277;-66
2021/12/26 13:32:40;;;;;;;13.93;6.05;;;;;;;;;;5001569;28;20577;-65
2021/12/26 13:35:05;;;;;;;9.20;5.00;;;;;;;;;;4996229;28;20044;-65
2021/12/26 13:37:31;;;;;;;9.38;3.97;;;;;;;;;;4998410;28;20203;-67
2021/12/26 13:39:58;;;;;;;6.00;3.25;;;;;;;;;;5004079;28;20109;-67
2021/12/26 13:42:23;;;;;;;6.45;3.20;;;;;;;;;;5003738;28;20021;-66
2021/12/26 13:44:49;;;;;;;13.20;6.68;;;;;;;;;;5001996;28;20022;-66
2021/12/26 13:47:14;;;;;;;13.23;6.63;;;;;;;;;;5003009;28;20028;-65
2021/12/26 13:49:39;;;;;;;15.73;6.75;;;;;;;;;;5006226;28;20037;-67
2021/12/26 13:52:05;;;;;;;18.25;6.50;;;;;;;;;;5002591;28;20022;-66
2021/12/26 13:54:37;;;;;;;8.27;4.20;;;;;;;;;;4999940;28;20394;-66
2021/12/26 13:57:07;;;;;;;11.30;5.20;;;;;;;;;;5002665;28;20651;-66
2021/12/26 13:59:37;;;;;;;15.98;6.35;;;;;;;;;;4992085;28;20424;-66
2021/12/26 14:02:09;;;;;;;12.75;6.75;;;;;;;;;;5000861;28;20030;-67
2021/12/26 14:04:57;;;;;;;16.48;8.13;;;;;;;;;;4997335;28;20486;-67
2021/12/26 14:07:26;;;;;;;12.82;6.15;;;;;;;;;;4992507;28;20038;-67
2021/12/26 14:09:53;;;;;;;7.80;4.03;;;;;;;;;;5000962;28;20430;-67
2021/12/26 14:12:29;;;;;;;13.05;6.63;;;;;;;;;;5006376;28;20022;-67
2021/12/26 14:14:58;;;;;;;13.25;3.20;;;;;;;;;;5003941;28;20026;-67
2021/12/26 14:17:23;;;;;;;15.43;8.23;;;;;;;;;;5008177;28;20434;-67
2021/12/26 14:19:52;;;;;;;15.07;5.68;;;;;;;;;;5010107;28;20164;-66
2021/12/26 14:22:24;;;;;;;13.85;6.60;;;;;;;;;;5010880;28;20022;-67
2021/12/26 14:24:49;;;;;;;11.02;4.80;;;;;;;;;;5012407;28;20033;-66
2021/12/26 14:27:15;;;;;;;10.40;6.03;;;;;;;;;;5012256;28;20018;-67
2021/12/26 14:29:40;;;;;;;13.90;4.95;;;;;;;;;;5012351;28;20022;-67
2021/12/26 14:32:06;;;;;;;13.93;7.15;;;;;;;;;;5012122;28;20022;-67
2021/12/26 14:34:32;;;;;;;15.20;6.15;;;;;;;;;;5012237;28;20025;-67
2021/12/26 14:37:05;;;;;;;13.45;5.90;;;;;;;;;;5011555;28;20285;-68